createdAt,value
2018-10-19T00:00:14.459Z,45.50
2018-10-19T00:01:14.419Z,34.90
2018-10-19T00:02:14.384Z,35.50
2018-10-19T00:03:14.467Z,40.30
2018-10-19T00:04:14.315Z,48.70
2018-10-19T00:05:14.295Z,34.50
2018-10-19T00:06:14.243Z,32.40
2018-10-19T00:07:14.211Z,35.00
2018-10-19T00:08:14.185Z,30.80
2018-10-19T00:09:14.168Z,29.20
2018-10-19T00:10:14.109Z,36.00
2018-10-19T00:11:14.153Z,41.90
2018-10-19T00:12:14.033Z,41.40
2018-10-19T00:13:14.019Z,34.60
2018-10-19T00:14:13.966Z,41.90
2018-10-19T00:15:14.009Z,34.40
2018-10-19T00:16:13.896Z,45.10
2018-10-19T00:17:13.896Z,41.60
2018-10-19T00:18:13.822Z,33.70
2018-10-19T00:19:13.796Z,40.10
2018-10-19T00:20:13.753Z,40.00
2018-10-19T00:21:13.755Z,55.50
2018-10-19T00:22:13.679Z,34.60
2018-10-19T00:23:13.735Z,40.30
2018-10-19T00:24:13.621Z,46.20
2018-10-19T00:25:13.578Z,40.50
2018-10-19T00:26:13.538Z,39.30
2018-10-19T00:27:13.560Z,52.10
2018-10-19T00:28:13.476Z,52.70
2018-10-19T00:29:13.499Z,48.10
2018-10-19T00:30:13.398Z,46.60
2018-10-19T00:31:13.366Z,45.50
2018-10-19T00:32:13.329Z,40.30
2018-10-19T00:33:13.354Z,44.70
2018-10-19T00:34:13.263Z,44.60
2018-10-19T00:35:13.276Z,37.30
2018-10-19T00:36:13.185Z,51.20
2018-10-19T00:37:13.154Z,39.50
2018-10-19T00:38:13.115Z,47.20
2018-10-19T00:39:13.153Z,42.10
2018-10-19T00:40:13.051Z,39.50
2018-10-19T00:41:13.084Z,42.30
2018-10-19T00:42:12.972Z,51.40
2018-10-19T00:43:12.934Z,44.30
2018-10-19T00:44:12.901Z,44.70
2018-10-19T00:45:12.939Z,50.90
2018-10-19T00:46:12.833Z,65.80
2018-10-19T00:47:12.844Z,57.70
2018-10-19T00:48:12.759Z,53.10
2018-10-19T00:49:12.726Z,46.10
2018-10-19T00:50:12.699Z,48.00
2018-10-19T00:51:12.709Z,43.50
2018-10-19T00:52:12.621Z,47.80
2018-10-19T00:53:12.635Z,43.70
2018-10-19T00:54:12.549Z,50.70
2018-10-19T00:55:12.522Z,48.10
2018-10-19T00:56:12.477Z,46.90
2018-10-19T00:57:12.529Z,60.00
2018-10-19T00:58:12.411Z,54.90
2018-10-19T00:59:12.433Z,53.20
2018-10-19T01:00:12.345Z,61.00
2018-10-19T01:01:12.299Z,51.90
2018-10-19T01:02:12.264Z,52.70
2018-10-19T01:03:12.301Z,62.10
2018-10-19T01:04:12.194Z,66.80
2018-10-19T01:05:12.189Z,49.80
2018-10-19T01:06:12.130Z,50.40
2018-10-19T01:07:12.088Z,59.00
2018-10-19T01:08:12.053Z,64.50
2018-10-19T01:09:12.070Z,57.60
2018-10-19T01:10:11.979Z,43.50
2018-10-19T01:11:12.020Z,62.10
2018-10-19T01:12:11.936Z,52.20
2018-10-19T01:13:11.874Z,47.00
2018-10-19T01:14:11.837Z,42.30
2018-10-19T01:15:11.826Z,47.80
2018-10-19T01:16:11.776Z,55.50
2018-10-19T01:17:11.825Z,53.00
2018-10-19T01:18:11.696Z,50.70
2018-10-19T01:19:11.659Z,41.00
2018-10-19T01:20:11.670Z,51.10
2018-10-19T01:21:11.727Z,44.50
2018-10-19T01:22:11.554Z,41.70
2018-10-19T01:23:11.607Z,46.20
2018-10-19T01:24:11.483Z,39.40
2018-10-19T01:25:11.446Z,47.70
2018-10-19T01:26:11.419Z,50.30
2018-10-19T01:27:11.430Z,47.80
2018-10-19T01:28:11.344Z,41.30
2018-10-19T01:29:11.364Z,38.10
2018-10-19T01:30:11.270Z,38.80
2018-10-19T01:31:11.248Z,31.80
2018-10-19T01:32:11.204Z,29.10
2018-10-19T01:33:11.234Z,38.90
2018-10-19T01:34:11.130Z,35.10
2018-10-19T01:35:11.131Z,41.20
2018-10-19T01:36:11.078Z,40.50
2018-10-19T01:37:11.017Z,44.40
2018-10-19T01:38:10.989Z,39.00
2018-10-19T01:39:11.013Z,32.00
2018-10-19T01:40:10.917Z,32.40
2018-10-19T01:41:10.935Z,27.30
2018-10-19T01:42:10.854Z,43.00
2018-10-19T01:43:10.813Z,36.60
2018-10-19T01:44:10.773Z,35.90
2018-10-19T01:45:10.780Z,27.10
2018-10-19T01:46:10.702Z,30.00
2018-10-19T01:47:10.716Z,32.90
2018-10-19T01:48:10.637Z,38.90
2018-10-19T01:49:10.597Z,39.40
2018-10-19T01:50:10.571Z,29.70
2018-10-19T01:51:10.573Z,31.20
2018-10-19T01:52:10.503Z,32.70
2018-10-19T01:53:10.617Z,34.90
2018-10-19T01:54:10.420Z,32.70
2018-10-19T01:55:10.384Z,25.50
2018-10-19T01:56:10.349Z,30.40
2018-10-19T01:57:10.433Z,28.60
2018-10-19T01:58:10.286Z,30.80
2018-10-19T01:59:10.313Z,32.30
2018-10-19T02:00:10.207Z,25.80
2018-10-19T02:01:10.175Z,31.60
2018-10-19T02:02:10.160Z,31.10
2018-10-19T02:03:10.172Z,40.10
2018-10-19T02:04:10.066Z,37.50
2018-10-19T02:05:10.103Z,32.90
2018-10-19T02:06:09.994Z,25.30
2018-10-19T02:07:09.961Z,23.10
2018-10-19T02:08:09.938Z,31.10
2018-10-19T02:09:09.942Z,31.20
2018-10-19T02:10:11.485Z,34.00
2018-10-19T02:11:09.867Z,37.40
2018-10-19T02:12:09.784Z,25.80
2018-10-19T02:13:09.757Z,35.10
2018-10-19T02:14:09.712Z,28.10
2018-10-19T02:15:09.743Z,39.30
2018-10-19T02:16:09.641Z,39.10
2018-10-19T02:17:09.664Z,36.00
2018-10-19T02:18:09.581Z,30.80
2018-10-19T02:19:09.537Z,31.40
2018-10-19T02:20:09.507Z,29.80
2018-10-19T02:21:09.532Z,28.10
2018-10-19T02:22:09.436Z,35.30
2018-10-19T02:23:09.441Z,34.50
2018-10-19T02:24:09.363Z,40.70
2018-10-19T02:25:09.322Z,24.80
2018-10-19T02:26:09.288Z,28.20
2018-10-19T02:27:09.343Z,34.80
2018-10-19T02:28:09.225Z,33.90
2018-10-19T02:29:09.269Z,34.10
2018-10-19T02:30:09.149Z,34.60
2018-10-19T02:31:09.110Z,38.60
2018-10-19T02:32:09.080Z,45.90
2018-10-19T02:33:09.159Z,39.30
2018-10-19T02:34:09.004Z,37.70
2018-10-19T02:35:09.064Z,44.00
2018-10-19T02:36:08.934Z,35.50
2018-10-19T02:37:08.897Z,31.60
2018-10-19T02:38:08.865Z,33.40
2018-10-19T02:39:08.880Z,34.50
2018-10-19T02:40:08.789Z,32.70
2018-10-19T02:41:08.800Z,39.30
2018-10-19T02:42:08.721Z,34.80
2018-10-19T02:43:08.684Z,43.30
2018-10-19T02:44:08.664Z,38.30
2018-10-19T02:45:08.688Z,44.50
2018-10-19T02:46:08.578Z,38.00
2018-10-19T02:47:08.606Z,38.00
2018-10-19T02:48:08.536Z,44.50
2018-10-19T02:49:08.480Z,39.50
2018-10-19T02:50:08.438Z,45.00
2018-10-19T02:51:08.444Z,32.00
2018-10-19T02:52:08.365Z,35.40
2018-10-19T02:53:08.370Z,37.90
2018-10-19T02:54:08.317Z,42.50
2018-10-19T02:55:08.264Z,47.30
2018-10-19T02:56:08.223Z,36.20
2018-10-19T02:57:08.388Z,39.10
2018-10-19T02:58:08.152Z,45.70
2018-10-19T02:59:08.164Z,36.90
2018-10-19T03:00:08.089Z,57.60
2018-10-19T03:01:08.043Z,53.40
2018-10-19T03:02:08.008Z,46.10
2018-10-19T03:03:08.042Z,36.30
2018-10-19T03:04:07.940Z,39.10
2018-10-19T03:05:08.008Z,42.00
2018-10-19T03:06:07.864Z,40.60
2018-10-19T03:07:07.834Z,47.70
2018-10-19T03:08:07.796Z,48.80
2018-10-19T03:09:07.828Z,40.40
2018-10-19T03:10:07.741Z,54.20
2018-10-19T03:11:07.761Z,51.30
2018-10-19T03:12:07.653Z,46.30
2018-10-19T03:13:07.616Z,46.80
2018-10-19T03:14:07.582Z,48.50
2018-10-19T03:15:07.640Z,47.30
2018-10-19T03:16:07.516Z,48.40
2018-10-19T03:17:07.482Z,55.60
2018-10-19T03:18:07.444Z,55.60
2018-10-19T03:19:07.403Z,49.50
2018-10-19T03:20:07.374Z,46.10
2018-10-19T03:21:07.399Z,53.80
2018-10-19T03:22:07.295Z,49.50
2018-10-19T03:23:07.272Z,49.00
2018-10-19T03:24:07.224Z,53.30
2018-10-19T03:25:07.209Z,45.70
2018-10-19T03:26:07.152Z,50.20
2018-10-19T03:27:07.123Z,51.90
2018-10-19T03:28:07.077Z,57.70
2018-10-19T03:29:07.070Z,54.90
2018-10-19T03:30:07.010Z,53.60
2018-10-19T03:31:07.102Z,48.40
2018-10-19T03:32:06.949Z,53.00
2018-10-19T03:33:06.925Z,66.60
2018-10-19T03:34:06.865Z,54.40
2018-10-19T03:35:06.837Z,49.90
2018-10-19T03:36:06.805Z,48.70
2018-10-19T03:37:06.781Z,54.80
2018-10-19T03:38:06.728Z,46.30
2018-10-19T03:39:06.686Z,50.00
2018-10-19T03:40:06.648Z,54.80
2018-10-19T03:41:06.709Z,58.00
2018-10-19T03:42:06.578Z,58.00
2018-10-19T03:43:06.540Z,52.70
2018-10-19T03:44:06.501Z,63.10
2018-10-19T03:45:06.508Z,70.90
2018-10-19T03:46:06.453Z,54.80
2018-10-19T03:47:06.465Z,61.20
2018-10-19T03:48:06.358Z,56.10
2018-10-19T03:49:06.377Z,60.50
2018-10-19T03:50:06.287Z,69.60
2018-10-19T03:51:06.278Z,59.10
2018-10-19T03:52:06.224Z,52.50
2018-10-19T03:53:06.246Z,67.70
2018-10-19T03:54:06.143Z,60.00
2018-10-19T03:55:06.106Z,59.70
2018-10-19T03:56:06.069Z,63.00
2018-10-19T03:57:06.124Z,58.70
2018-10-19T03:58:05.999Z,62.80
2018-10-19T03:59:06.080Z,54.50
2018-10-19T04:00:05.927Z,63.70
2018-10-19T04:01:05.893Z,62.30
2018-10-19T04:02:05.870Z,57.40
2018-10-19T04:03:05.891Z,58.60
2018-10-19T04:04:05.783Z,63.00
2018-10-19T04:05:05.789Z,53.40
2018-10-19T04:06:05.708Z,65.60
2018-10-19T04:07:05.683Z,53.40
2018-10-19T04:08:05.638Z,64.40
2018-10-19T04:09:05.650Z,45.50
2018-10-19T04:10:05.560Z,36.70
2018-10-19T04:11:05.596Z,45.00
2018-10-19T04:12:05.505Z,46.60
2018-10-19T04:13:05.456Z,49.30
2018-10-19T04:14:05.421Z,48.50
2018-10-19T04:15:05.421Z,45.60
2018-10-19T04:16:05.353Z,47.50
2018-10-19T04:17:05.376Z,52.10
2018-10-19T04:18:05.273Z,47.60
2018-10-19T04:19:05.241Z,46.10
2018-10-19T04:20:05.204Z,56.20
2018-10-19T04:21:05.201Z,50.00
2018-10-19T04:22:05.150Z,48.50
2018-10-19T04:23:05.141Z,57.90
2018-10-19T04:24:05.062Z,47.50
2018-10-19T04:25:05.024Z,53.80
2018-10-19T04:26:04.994Z,45.30
2018-10-19T04:27:05.000Z,52.00
2018-10-19T04:28:04.929Z,58.20
2018-10-19T04:29:04.895Z,49.10
2018-10-19T04:30:04.842Z,46.60
2018-10-19T04:31:04.814Z,45.70
2018-10-19T04:32:04.774Z,50.50
2018-10-19T04:33:04.750Z,43.40
2018-10-19T04:34:04.701Z,44.40
2018-10-19T04:35:04.714Z,43.70
2018-10-19T04:36:04.627Z,48.50
2018-10-19T04:37:04.592Z,42.10
2018-10-19T04:38:04.568Z,41.70
2018-10-19T04:39:04.551Z,45.10
2018-10-19T04:40:04.488Z,46.80
2018-10-19T04:41:04.462Z,51.60
2018-10-19T04:42:04.614Z,51.90
2018-10-19T04:43:04.394Z,47.30
2018-10-19T04:44:04.338Z,55.90
2018-10-19T04:45:04.359Z,57.50
2018-10-19T04:46:04.273Z,55.30
2018-10-19T04:47:04.248Z,51.10
2018-10-19T04:48:04.199Z,64.90
2018-10-19T04:49:04.166Z,51.20
2018-10-19T04:50:04.123Z,52.10
2018-10-19T04:51:04.153Z,59.90
2018-10-19T04:52:04.057Z,57.30
2018-10-19T04:53:04.036Z,61.00
2018-10-19T04:54:03.990Z,57.20
2018-10-19T04:55:03.949Z,63.00
2018-10-19T04:56:03.903Z,55.50
2018-10-19T04:57:03.904Z,73.00
2018-10-19T04:58:03.838Z,72.50
2018-10-19T04:59:03.847Z,71.80
2018-10-19T05:00:03.762Z,63.80
2018-10-19T05:01:03.723Z,71.10
2018-10-19T05:02:03.696Z,81.50
2018-10-19T05:03:03.758Z,67.50
2018-10-19T05:04:03.632Z,63.50
2018-10-19T05:05:03.608Z,75.80
2018-10-19T05:06:03.675Z,60.90
2018-10-19T05:07:03.517Z,76.00
2018-10-19T05:08:03.483Z,85.50
2018-10-19T05:09:03.449Z,74.50
2018-10-19T05:10:03.401Z,76.30
2018-10-19T05:11:03.411Z,84.90
2018-10-19T05:12:03.331Z,90.20
2018-10-19T05:13:03.359Z,84.00
2018-10-19T05:14:03.286Z,104.10
2018-10-19T05:15:03.219Z,95.80
2018-10-19T05:16:03.189Z,86.30
2018-10-19T05:17:03.202Z,107.60
2018-10-19T05:18:03.106Z,93.00
2018-10-19T05:19:03.094Z,104.90
2018-10-19T05:20:03.081Z,106.60
2018-10-19T05:21:03.002Z,97.10
2018-10-19T05:22:02.987Z,95.90
2018-10-19T05:23:02.998Z,114.60
2018-10-19T05:24:02.909Z,103.50
2018-10-19T05:25:02.856Z,115.00
2018-10-19T05:26:02.923Z,111.50
2018-10-19T05:27:02.787Z,119.80
2018-10-19T05:28:02.746Z,118.10
2018-10-19T05:29:02.802Z,106.50
2018-10-19T05:30:02.675Z,111.20
2018-10-19T05:31:02.639Z,111.70
2018-10-19T05:32:02.700Z,113.90
2018-10-19T05:33:02.594Z,121.60
2018-10-19T05:34:02.525Z,118.90
2018-10-19T05:35:02.611Z,124.60
2018-10-19T05:36:02.457Z,118.70
2018-10-19T05:37:02.417Z,136.70
2018-10-19T05:38:02.433Z,124.10
2018-10-19T05:39:02.348Z,135.40
2018-10-19T05:40:02.321Z,138.10
2018-10-19T05:41:02.369Z,132.60
2018-10-19T05:42:02.240Z,132.40
2018-10-19T05:43:02.196Z,144.00
2018-10-19T05:44:02.179Z,128.60
2018-10-19T05:45:02.137Z,136.10
2018-10-19T05:46:02.090Z,140.40
2018-10-19T05:47:02.069Z,122.40
2018-10-19T05:48:02.021Z,117.40
2018-10-19T05:49:01.984Z,122.50
2018-10-19T05:50:02.088Z,122.40
2018-10-19T05:51:01.913Z,112.40
2018-10-19T05:52:01.895Z,119.50
2018-10-19T05:53:01.860Z,133.40
2018-10-19T05:54:01.799Z,118.40
2018-10-19T05:55:01.761Z,131.80
2018-10-19T05:56:01.761Z,123.40
2018-10-19T05:57:01.689Z,132.30
2018-10-19T05:58:01.654Z,114.80
2018-10-19T05:59:01.628Z,129.20
2018-10-19T06:00:01.591Z,121.30
2018-10-19T06:01:01.550Z,126.10
2018-10-19T06:02:01.548Z,116.10
2018-10-19T06:03:01.469Z,125.20
2018-10-19T06:04:01.435Z,135.60
2018-10-19T06:05:01.434Z,112.50
2018-10-19T06:06:01.373Z,136.00
2018-10-19T06:07:01.323Z,136.00
2018-10-19T06:08:01.300Z,127.10
2018-10-19T06:09:01.252Z,142.10
2018-10-19T06:10:01.213Z,125.60
2018-10-19T06:11:01.204Z,134.10
2018-10-19T06:12:01.166Z,137.30
2018-10-19T06:13:01.105Z,147.80
2018-10-19T06:14:01.122Z,127.90
2018-10-19T06:15:01.039Z,136.30
2018-10-19T06:16:01.004Z,124.20
2018-10-19T06:17:01.034Z,118.90
2018-10-19T06:18:00.921Z,133.30
2018-10-19T06:19:00.888Z,135.10
2018-10-19T06:20:00.852Z,132.70
2018-10-19T06:21:00.845Z,127.30
2018-10-19T06:22:00.779Z,121.00
2018-10-19T06:23:00.752Z,115.90
2018-10-19T06:24:00.704Z,134.40
2018-10-19T06:25:00.665Z,122.80
2018-10-19T06:26:00.705Z,136.40
2018-10-19T06:27:00.648Z,124.90
2018-10-19T06:28:00.557Z,105.00
2018-10-19T06:29:00.572Z,113.60
2018-10-19T06:30:00.483Z,106.00
2018-10-19T06:31:00.452Z,109.40
2018-10-19T06:32:00.459Z,123.80
2018-10-19T06:33:00.380Z,106.10
2018-10-19T06:34:00.348Z,122.10
2018-10-19T06:35:00.382Z,117.90
2018-10-19T06:36:00.269Z,110.00
2018-10-19T06:37:00.235Z,102.30
2018-10-19T06:38:00.210Z,101.40
2018-10-19T06:39:00.155Z,101.60
2018-10-19T06:40:00.126Z,98.90
2018-10-19T06:41:00.086Z,100.70
2018-10-19T06:42:00.058Z,96.10
2018-10-19T06:43:00.012Z,81.80
2018-10-19T06:43:59.978Z,79.80
2018-10-19T06:44:59.940Z,88.70
2018-10-19T06:45:59.901Z,78.80
2018-10-19T06:46:59.892Z,92.00
2018-10-19T06:47:59.884Z,81.60
2018-10-19T06:49:00.625Z,84.00
2018-10-19T06:49:59.791Z,75.80
2018-10-19T06:50:59.717Z,80.90
2018-10-19T06:51:59.701Z,79.50
2018-10-19T06:52:59.654Z,81.70
2018-10-19T06:53:59.607Z,73.60
2018-10-19T06:54:59.575Z,85.70
2018-10-19T06:55:59.555Z,85.90
2018-10-19T06:56:59.514Z,69.40
2018-10-19T06:57:59.486Z,77.30
2018-10-19T06:58:59.460Z,77.10
2018-10-19T06:59:59.398Z,78.50
2018-10-19T07:00:59.354Z,72.70
2018-10-19T07:01:59.346Z,77.80
2018-10-19T07:02:59.295Z,75.50
2018-10-19T07:03:59.246Z,54.60
2018-10-19T07:04:59.216Z,65.00
2018-10-19T07:05:59.186Z,63.10
2018-10-19T07:06:59.138Z,58.00
2018-10-19T07:07:59.206Z,68.90
2018-10-19T07:08:59.068Z,64.10
2018-10-19T07:09:59.028Z,56.90
2018-10-19T07:10:59.044Z,54.40
2018-10-19T07:11:59.004Z,62.70
2018-10-19T07:12:58.930Z,54.10
2018-10-19T07:13:58.887Z,59.20
2018-10-19T07:14:58.849Z,58.30
2018-10-19T07:15:58.865Z,49.10
2018-10-19T07:16:58.786Z,59.10
2018-10-19T07:17:58.747Z,66.80
2018-10-19T07:18:58.717Z,62.20
2018-10-19T07:19:58.671Z,51.80
2018-10-19T07:20:58.640Z,54.10
2018-10-19T07:21:58.595Z,56.30
2018-10-19T07:22:58.570Z,47.00
2018-10-19T07:23:58.521Z,53.20
2018-10-19T07:24:58.486Z,46.40
2018-10-19T07:25:58.504Z,57.30
2018-10-19T07:26:58.413Z,47.40
2018-10-19T07:27:58.393Z,46.30
2018-10-19T07:28:58.348Z,49.60
2018-10-19T07:29:58.308Z,53.20
2018-10-19T07:30:58.270Z,45.60
2018-10-19T07:31:58.252Z,56.70
2018-10-19T07:32:58.197Z,52.00
2018-10-19T07:33:58.173Z,39.00
2018-10-19T07:34:58.129Z,40.20
2018-10-19T07:35:58.094Z,43.60
2018-10-19T07:36:58.066Z,43.40
2018-10-19T07:37:58.023Z,47.70
2018-10-19T07:38:57.992Z,37.50
2018-10-19T07:39:57.949Z,44.20
2018-10-19T07:40:57.933Z,46.10
2018-10-19T07:41:57.879Z,42.40
2018-10-19T07:42:57.843Z,48.20
2018-10-19T07:43:57.813Z,44.90
2018-10-19T07:44:57.769Z,42.90
2018-10-19T07:45:57.728Z,40.40
2018-10-19T07:46:57.700Z,41.40
2018-10-19T07:47:57.846Z,49.00
2018-10-19T07:48:57.635Z,48.20
2018-10-19T07:49:57.591Z,44.10
2018-10-19T07:50:57.549Z,45.50
2018-10-19T07:51:57.515Z,49.30
2018-10-19T07:52:57.533Z,46.40
2018-10-19T07:53:57.479Z,48.10
2018-10-19T07:54:57.408Z,45.70
2018-10-19T07:55:57.414Z,43.60
2018-10-19T07:56:57.333Z,40.70
2018-10-19T07:57:57.301Z,43.20
2018-10-19T07:58:57.287Z,42.40
2018-10-19T07:59:57.231Z,42.50
2018-10-19T08:00:57.193Z,44.90
2018-10-19T08:01:57.161Z,42.20
2018-10-19T08:02:57.122Z,41.00
2018-10-19T08:03:57.104Z,34.70
2018-10-19T08:04:57.079Z,42.50
2018-10-19T08:05:57.014Z,43.20
2018-10-19T08:06:56.980Z,38.40
2018-10-19T08:07:56.956Z,36.80
2018-10-19T08:08:56.906Z,39.50
2018-10-19T08:09:56.876Z,37.90
2018-10-19T08:10:56.857Z,38.90
2018-10-19T08:11:56.794Z,40.60
2018-10-19T08:12:56.758Z,39.20
2018-10-19T08:13:56.742Z,36.70
2018-10-19T08:14:56.697Z,36.80
2018-10-19T08:15:56.655Z,33.70
2018-10-19T08:16:56.670Z,45.40
2018-10-19T08:17:56.584Z,38.50
2018-10-19T08:18:56.549Z,36.00
2018-10-19T08:19:56.566Z,38.40
2018-10-19T08:20:56.541Z,36.00
2018-10-19T08:21:56.439Z,33.40
2018-10-19T08:22:56.467Z,31.70
2018-10-19T08:23:56.373Z,40.10
2018-10-19T08:24:56.357Z,37.80
2018-10-19T08:25:56.352Z,32.50
2018-10-19T08:26:56.270Z,35.70
2018-10-19T08:27:56.233Z,35.20
2018-10-19T08:28:56.255Z,37.60
2018-10-19T08:29:56.156Z,37.50
2018-10-19T08:30:56.130Z,41.70
2018-10-19T08:31:56.104Z,40.40
2018-10-19T08:32:56.058Z,38.10
2018-10-19T08:33:56.014Z,33.70
2018-10-19T08:34:55.988Z,37.70
2018-10-19T08:35:55.952Z,37.10
2018-10-19T08:36:55.910Z,36.30
2018-10-19T08:37:55.873Z,35.50
2018-10-19T08:38:55.841Z,30.20
2018-10-19T08:39:55.803Z,28.50
2018-10-19T08:40:55.779Z,34.10
2018-10-19T08:41:55.732Z,32.20
2018-10-19T08:42:55.740Z,31.70
2018-10-19T08:43:55.661Z,28.90
2018-10-19T08:44:55.634Z,27.70
2018-10-19T08:45:55.601Z,29.00
2018-10-19T08:46:55.602Z,34.30
2018-10-19T08:47:55.526Z,36.70
2018-10-19T08:48:55.513Z,31.00
2018-10-19T08:49:55.449Z,29.10
2018-10-19T08:50:55.471Z,30.50
2018-10-19T08:51:55.380Z,32.70
2018-10-19T08:52:55.383Z,32.00
2018-10-19T08:53:55.315Z,27.20
2018-10-19T08:54:55.322Z,31.50
2018-10-19T08:55:55.242Z,27.70
2018-10-19T08:56:55.224Z,25.50
2018-10-19T08:57:55.227Z,28.50
2018-10-19T08:58:55.144Z,41.00
2018-10-19T08:59:55.107Z,29.80
2018-10-19T09:00:55.068Z,29.50
2018-10-19T09:01:55.041Z,31.40
2018-10-19T09:02:55.007Z,32.60
2018-10-19T09:03:55.009Z,31.10
2018-10-19T09:04:54.993Z,37.10
2018-10-19T09:05:54.916Z,27.50
2018-10-19T09:06:54.866Z,33.90
2018-10-19T09:07:54.823Z,25.10
2018-10-19T09:08:54.791Z,27.30
2018-10-19T09:09:54.757Z,22.80
2018-10-19T09:10:54.737Z,29.10
2018-10-19T09:11:54.803Z,26.70
2018-10-19T09:12:54.699Z,27.60
2018-10-19T09:13:54.616Z,26.00
2018-10-19T09:14:54.611Z,24.30
2018-10-19T09:15:54.547Z,22.60
2018-10-19T09:16:54.526Z,28.00
2018-10-19T09:17:54.479Z,23.30
2018-10-19T09:18:54.444Z,19.30
2018-10-19T09:19:54.411Z,26.50
2018-10-19T09:20:54.380Z,22.00
2018-10-19T09:21:54.351Z,22.70
2018-10-19T09:22:54.349Z,23.70
2018-10-19T09:23:54.270Z,23.80
2018-10-19T09:24:54.243Z,23.10
2018-10-19T09:25:54.200Z,23.70
2018-10-19T09:26:54.212Z,19.60
2018-10-19T09:27:54.136Z,22.30
2018-10-19T09:28:54.108Z,24.70
2018-10-19T09:29:54.065Z,21.90
2018-10-19T09:30:54.032Z,20.10
2018-10-19T09:31:54.007Z,26.10
2018-10-19T09:32:53.964Z,25.90
2018-10-19T09:33:53.929Z,27.30
2018-10-19T09:34:53.912Z,27.70
2018-10-19T09:35:53.882Z,20.40
2018-10-19T09:36:53.855Z,26.00
2018-10-19T09:37:53.789Z,20.00
2018-10-19T09:38:53.801Z,26.40
2018-10-19T09:39:53.729Z,22.60
2018-10-19T09:40:53.715Z,22.00
2018-10-19T09:41:53.712Z,22.80
2018-10-19T09:42:53.671Z,26.20
2018-10-19T09:43:53.588Z,19.00
2018-10-19T09:44:53.556Z,24.90
2018-10-19T09:45:53.520Z,20.40
2018-10-19T09:46:53.545Z,18.70
2018-10-19T09:47:53.451Z,37.00
2018-10-19T09:48:53.455Z,19.20
2018-10-19T09:49:53.382Z,23.40
2018-10-19T09:50:53.352Z,22.60
2018-10-19T09:51:53.337Z,22.30
2018-10-19T09:52:53.314Z,18.50
2018-10-19T09:53:53.247Z,22.40
2018-10-19T09:54:53.215Z,19.80
2018-10-19T09:55:53.185Z,24.40
2018-10-19T09:56:53.153Z,18.00
2018-10-19T09:57:53.119Z,27.50
2018-10-19T09:58:53.120Z,16.20
2018-10-19T09:59:53.046Z,22.40
2018-10-19T10:00:53.059Z,27.50
2018-10-19T10:01:53.036Z,17.10
2018-10-19T10:02:52.962Z,17.60
2018-10-19T10:03:52.914Z,24.30
2018-10-19T10:04:52.886Z,17.60
2018-10-19T10:05:52.845Z,24.40
2018-10-19T10:06:52.845Z,23.40
2018-10-19T10:07:52.831Z,20.90
2018-10-19T10:08:52.787Z,23.30
2018-10-19T10:09:52.712Z,24.60
2018-10-19T10:10:52.678Z,18.70
2018-10-19T10:11:52.644Z,19.50
2018-10-19T10:12:52.658Z,17.00
2018-10-19T10:13:52.575Z,21.80
2018-10-19T10:14:52.594Z,21.00
2018-10-19T10:15:52.537Z,22.80
2018-10-19T10:16:52.489Z,17.90
2018-10-19T10:17:52.448Z,15.00
2018-10-19T10:18:52.460Z,20.60
2018-10-19T10:19:52.378Z,22.00
2018-10-19T10:20:52.347Z,22.70
2018-10-19T10:21:52.341Z,21.70
2018-10-19T10:22:52.285Z,17.50
2018-10-19T10:23:52.242Z,28.70
2018-10-19T10:24:52.259Z,21.60
2018-10-19T10:25:52.174Z,20.20
2018-10-19T10:26:52.142Z,17.10
2018-10-19T10:27:52.123Z,18.80
2018-10-19T10:28:52.077Z,23.60
2018-10-19T10:29:52.046Z,20.30
2018-10-19T10:30:52.013Z,22.20
2018-10-19T10:31:51.977Z,22.90
2018-10-19T10:32:51.942Z,20.30
2018-10-19T10:33:51.919Z,18.90
2018-10-19T10:34:51.875Z,18.50
2018-10-19T10:35:51.844Z,18.70
2018-10-19T10:36:51.808Z,21.50
2018-10-19T10:37:51.775Z,20.60
2018-10-19T10:38:51.795Z,22.70
2018-10-19T10:39:51.724Z,17.20
2018-10-19T10:40:51.681Z,17.10
2018-10-19T10:41:51.645Z,20.60
2018-10-19T10:42:51.614Z,19.70
2018-10-19T10:43:51.589Z,16.30
2018-10-19T10:44:51.548Z,21.90
2018-10-19T10:45:51.515Z,21.60
2018-10-19T10:46:51.510Z,22.40
2018-10-19T10:47:51.448Z,15.10
2018-10-19T10:48:51.429Z,16.10
2018-10-19T10:49:51.384Z,15.50
2018-10-19T10:50:51.353Z,15.30
2018-10-19T10:51:51.317Z,23.90
2018-10-19T10:52:51.286Z,17.50
2018-10-19T10:53:51.260Z,16.90
2018-10-19T10:54:51.219Z,22.70
2018-10-19T10:55:51.184Z,12.80
2018-10-19T10:56:51.159Z,12.50
2018-10-19T10:57:51.123Z,16.30
2018-10-19T10:58:51.100Z,17.00
2018-10-19T10:59:51.057Z,10.30
2018-10-19T11:00:51.023Z,23.10
2018-10-19T11:01:51.002Z,19.40
2018-10-19T11:02:51.168Z,18.50
2018-10-19T11:03:50.934Z,14.70
2018-10-19T11:04:50.893Z,20.60
2018-10-19T11:05:50.861Z,18.60
2018-10-19T11:06:50.831Z,11.50
2018-10-19T11:07:50.799Z,13.40
2018-10-19T11:08:50.773Z,12.40
2018-10-19T11:09:50.731Z,18.50
2018-10-19T11:10:50.700Z,14.70
2018-10-19T11:11:50.668Z,16.80
2018-10-19T11:12:50.636Z,11.70
2018-10-19T11:13:50.616Z,12.50
2018-10-19T11:14:50.572Z,19.00
2018-10-19T11:15:50.543Z,16.50
2018-10-19T11:16:50.508Z,16.80
2018-10-19T11:17:50.477Z,11.10
2018-10-19T11:18:50.451Z,16.80
2018-10-19T11:19:50.412Z,16.10
2018-10-19T11:20:50.380Z,13.70
2018-10-19T11:21:50.348Z,18.60
2018-10-19T11:22:50.326Z,13.30
2018-10-19T11:23:50.338Z,16.70
2018-10-19T11:24:50.257Z,18.70
2018-10-19T11:25:50.221Z,11.10
2018-10-19T11:26:50.190Z,18.50
2018-10-19T11:27:50.161Z,13.20
2018-10-19T11:28:50.134Z,17.60
2018-10-19T11:29:50.092Z,17.10
2018-10-19T11:30:50.063Z,17.90
2018-10-19T11:31:50.031Z,18.50
2018-10-19T11:32:49.999Z,16.10
2018-10-19T11:33:49.984Z,12.90
2018-10-19T11:34:49.936Z,9.50
2018-10-19T11:35:49.905Z,15.40
2018-10-19T11:36:49.885Z,13.10
2018-10-19T11:37:49.894Z,9.90
2018-10-19T11:38:49.811Z,11.80
2018-10-19T11:39:49.786Z,12.30
2018-10-19T11:40:49.752Z,13.60
2018-10-19T11:41:49.722Z,12.90
2018-10-19T11:42:49.695Z,19.00
2018-10-19T11:43:49.654Z,11.70
2018-10-19T11:44:49.630Z,10.10
2018-10-19T11:45:49.594Z,17.30
2018-10-19T11:46:49.560Z,10.30
2018-10-19T11:47:49.550Z,12.00
2018-10-19T11:48:49.556Z,20.40
2018-10-19T11:49:49.559Z,10.40
2018-10-19T11:50:49.434Z,12.20
2018-10-19T11:51:49.403Z,14.90
2018-10-19T11:52:49.376Z,13.30
2018-10-19T11:53:49.339Z,15.20
2018-10-19T11:54:49.326Z,9.30
2018-10-19T11:55:49.279Z,23.00
2018-10-19T11:56:49.248Z,13.30
2018-10-19T11:57:49.215Z,15.30
2018-10-19T11:58:49.187Z,20.90
2018-10-19T11:59:49.168Z,16.90
2018-10-19T12:00:49.124Z,16.30
2018-10-19T12:01:49.087Z,13.40
2018-10-19T12:02:49.060Z,17.20
2018-10-19T12:03:49.029Z,17.50
2018-10-19T12:04:49.004Z,15.40
2018-10-19T12:05:48.970Z,12.80
2018-10-19T12:06:48.931Z,16.40
2018-10-19T12:07:48.907Z,19.40
2018-10-19T12:08:48.873Z,17.80
2018-10-19T12:09:48.856Z,17.40
2018-10-19T12:10:48.907Z,20.30
2018-10-19T12:11:48.778Z,14.00
2018-10-19T12:12:48.745Z,15.70
2018-10-19T12:13:48.715Z,14.20
2018-10-19T12:14:48.684Z,19.50
2018-10-19T12:15:48.664Z,19.30
2018-10-19T12:16:48.713Z,16.20
2018-10-19T12:17:48.588Z,20.50
2018-10-19T12:18:48.559Z,14.10
2018-10-19T12:19:48.529Z,11.60
2018-10-19T12:20:48.535Z,17.30
2018-10-19T12:21:48.464Z,14.10
2018-10-19T12:22:48.435Z,14.10
2018-10-19T12:23:48.402Z,16.00
2018-10-19T12:24:48.371Z,14.40
2018-10-19T12:25:48.347Z,22.70
2018-10-19T12:26:48.309Z,13.80
2018-10-19T12:27:48.279Z,10.60
2018-10-19T12:28:48.250Z,11.90
2018-10-19T12:29:48.214Z,23.40
2018-10-19T12:30:48.191Z,13.00
2018-10-19T12:31:48.151Z,8.20
2018-10-19T12:32:48.122Z,12.60
2018-10-19T12:33:48.090Z,11.70
2018-10-19T12:34:48.060Z,18.10
2018-10-19T12:35:48.040Z,17.80
2018-10-19T12:36:47.995Z,10.90
2018-10-19T12:37:47.966Z,11.20
2018-10-19T12:38:47.943Z,13.60
2018-10-19T12:39:47.913Z,15.10
2018-10-19T12:40:47.881Z,10.80
2018-10-19T12:41:47.842Z,12.30
2018-10-19T12:42:47.811Z,15.60
2018-10-19T12:43:47.780Z,26.30
2018-10-19T12:44:47.752Z,10.10
2018-10-19T12:45:47.736Z,17.30
2018-10-19T12:46:47.689Z,23.50
2018-10-19T12:47:47.661Z,13.60
2018-10-19T12:48:47.626Z,12.00
2018-10-19T12:49:47.598Z,13.10